WetterOnline ( http://www.wetteronline.de )

Wetter aktuell Schmölln

Aktuelles Wetter: Leipzig-Holzhausen (138m)

6-stündlich | Neueste Meldungen
Ortszeit Temperatur Wetter
Mi, 29.03. 8:00 10.8° C leicht bewölkt
Mi, 29.03. 2:00 10.8° C wolkig
Di, 28.03. 20:00 15.0° C leicht bewölkt
Di, 28.03. 14:00 19.2° C wolkenlos
Ortszeit Temperatur Wetter
Mi, 29.03. 11:00 15.4° C wolkig
Mi, 29.03. 10:30 14.9° C wolkig
Mi, 29.03. 10:00 14.2° C leicht bewölkt
Mi, 29.03. 9:30 13.5° C leicht bewölkt
Mi, 29.03. 9:00 12.5° C leicht bewölkt
Mi, 29.03. 8:30 11.6° C leicht bewölkt
Ortszeit Relative Feuchte Sichtweite
Mi, 29.03. 8:00 70% 12 km
Mi, 29.03. 2:00 65% 28 km
Di, 28.03. 20:00 38% 13 km
Di, 28.03. 14:00 25% 30 km
Ortszeit Relative Feuchte Sichtweite
Mi, 29.03. 11:00 57% 20 km
Mi, 29.03. 10:30 59% 14 km
Mi, 29.03. 10:00 60% 15 km
Mi, 29.03. 9:30 61% 18 km
Mi, 29.03. 9:00 64% 15 km
Mi, 29.03. 8:30 68% 12 km
Ortszeit Niederschlagsmenge Niederschlagsart
Mi, 29.03. 8:00 0,0 l/m2 in 12 Std. -
Mi, 29.03. 2:00 0,0 l/m2 in 6 Std. -
Di, 28.03. 20:00 0,0 l/m2 in 12 Std. -
Di, 28.03. 14:00 0,0 l/m2 in 6 Std. -
Ortszeit Niederschlagsmenge Niederschlagsart
Mi, 29.03. 11:00 0,0 l/m2 in 1 Std. -
Mi, 29.03. 10:30 keine Meldung -
Mi, 29.03. 10:00 0,0 l/m2 in 1 Std. -
Mi, 29.03. 9:30 keine Meldung -
Mi, 29.03. 9:00 0,0 l/m2 in 1 Std. -
Mi, 29.03. 8:30 keine Meldung -
Ortszeit Stärke Spitze Richtung
km/h Bft. km/h Grad Sektor
Mi, 29.03. 8:00 11 2 22 250° W
Mi, 29.03. 2:00 7 2 14 240° SW
Di, 28.03. 20:00 4 1 22 250° W
Di, 28.03. 14:00 11 2 22 250° W
Ortszeit Stärke Spitze Richtung
km/h Bft. km/h Grad Sektor
Mi, 29.03. 11:00 15 3 41 260° W
Mi, 29.03. 10:30 17 3 33 260° W
Mi, 29.03. 10:00 14 3 36 250° W
Mi, 29.03. 9:30 13 3 28 250° W
Mi, 29.03. 9:00 11 2 25 250° W
Mi, 29.03. 8:30 11 2 22 250° W
Ortszeit Untergrenze Bedeckung Gattung
total tief tief mittel hoch
Mi, 29.03. 8:00 2400 m 4/8 4/8 - - -
Mi, 29.03. 2:00 2100 m 6/8 6/8 - - -
Di, 28.03. 20:00 8700 m 6/8 0/8 - - -
Di, 28.03. 14:00 - 0/8 0/8 - - -
Ortszeit Bedeckungsgrad in Achtel und Wolkenuntergrenze
Mi, 29.03. 11:00 5(3000m) 7(3600m) 8(8100m)
Mi, 29.03. 10:30 8(7200m) 8(8400m)
Mi, 29.03. 10:00 8(7200m)
Mi, 29.03. 9:30 3(7500m) 6(8400m)
Mi, 29.03. 9:00 1(2400m) 3(8700m)
Mi, 29.03. 8:30 3(2400m)
Ortszeit Luftdruck NN (hPa) Tendenz (hPa in 3 Std.)
Mi, 29.03. 8:00 1023 + 1,0
Mi, 29.03. 2:00 1022 + 1,1
Di, 28.03. 20:00 1020 - 0,1
Di, 28.03. 14:00 1021 - 1,2
Ortszeit Luftdruck NN (hPa) Tendenz (hPa in 3 Std.)
Mi, 29.03. 11:00 1023 + 0,9
Mi, 29.03. 10:30 1023 + 1,0
Mi, 29.03. 10:00 1023 + 0,9
Mi, 29.03. 9:30 1023 + 0,9
Mi, 29.03. 9:00 1023 + 0,9
Mi, 29.03. 8:30 1023 + 1,2
Ortszeit Schneehöhe (cm)
Mi, 29.03. 8:00 -
Mi, 29.03. 2:00 -
Di, 28.03. 20:00 -
Di, 28.03. 14:00 -
Ortszeit Schneehöhe (cm)
Mi, 29.03. 11:00 -
Mi, 29.03. 10:30 -
Mi, 29.03. 10:00 -
Mi, 29.03. 9:30 -
Mi, 29.03. 9:00 -
Mi, 29.03. 8:30 -
Link zu dieser Seite / Seite empfehlen

Das Wetter in ...